.
WxDataArchive / Data Records for 2011-04-19
2011-04-18 April 2011 2011-04-20

Data Records for Tuesday, 19 April 2011

Time	Temp	Chill	HIndex	Humid	Dewpt	 Wind 	HiWind	WindDir	Rain 	Barom 
-----	----	-----	------	-----	-----	------	------	-------	-----	----- 
00:00	39.2	39.2	39.2	82	34.2	2	11	112	0.00	29.991 
00:05	39.2	39.2	39.2	83	34.5	1	5	112	0.00	29.991 
00:10	39.1	39.1	39.1	83	34.4	1	6	112	0.00	29.991 
00:15	39.1	39.1	39.1	83	34.4	3	10	112	0.00	29.993 
00:20	38.9	38.9	38.9	83	34.2	3	9	112	0.00	29.993 
00:25	38.9	38.9	38.9	83	34.2	2	6	90	0.00	29.993 
00:30	38.8	38.8	38.8	83	34.1	1	5	45	0.00	30.003 
00:35	38.8	38.8	38.8	83	34.1	2	5	112	0.00	30.003 
00:40	38.8	38.8	38.8	84	34.4	2	9	112	0.00	30.003 
00:45	38.6	38.6	38.6	84	34.2	3	10	135	0.00	29.988 
00:50	38.6	38.6	38.6	84	34.2	2	10	90	0.00	29.988 
00:55	38.5	38.5	38.5	84	34.1	3	7	90	0.00	29.988 
01:00	38.3	35.4	38.3	84	33.9	4	9	68	0.00	29.997 
01:05	38.3	38.3	38.3	85	34.2	3	9	112	0.00	29.997 
01:10	38.3	38.3	38.3	85	34.2	3	10	112	0.00	29.997 
01:15	38.2	34.4	38.2	85	34.1	5	11	90	0.00	29.988 
01:20	38.2	35.2	38.2	86	34.4	4	7	90	0.00	29.988 
01:25	38.2	38.2	38.2	86	34.4	3	6	90	0.00	29.988 
01:30	38.2	38.2	38.2	86	34.4	2	7	112	0.00	29.992 
01:35	38.3	38.3	38.3	86	34.5	2	6	112	0.00	29.992 
01:40	38.3	38.3	38.3	86	34.5	3	9	90	0.00	29.992 
01:45	38.3	38.3	38.3	86	34.5	2	6	112	0.00	29.993 
01:50	38.3	38.3	38.3	86	34.5	3	10	90	0.00	29.993 
01:55	38.5	38.5	38.5	87	35.0	2	9	90	0.00	29.993 
02:00	38.5	38.5	38.5	87	35.0	2	6	90	0.00	29.993 
02:05	38.5	38.5	38.5	87	35.0	2	9	90	0.00	29.993 
02:10	38.3	38.3	38.3	88	35.1	3	7	112	0.00	29.993 
02:15	38.2	35.2	38.2	88	35.0	4	11	90	0.00	29.967 
02:20	38.2	35.2	38.2	88	35.0	4	10	90	0.01	29.967 
02:25	38.0	35.0	38.0	89	35.1	4	12	90	0.00	29.967 
02:30	38.0	38.0	38.0	90	35.3	3	7	90	0.01	29.966 
02:35	37.9	34.9	37.9	90	35.2	4	11	90	0.00	29.966 
02:40	37.9	37.9	37.9	90	35.2	3	10	90	0.01	29.966 
02:45	37.8	37.8	37.8	91	35.4	3	5	90	0.01	29.969 
02:50	37.8	37.8	37.8	91	35.4	2	7	68	0.00	29.969 
02:55	37.8	37.8	37.8	92	35.7	2	4	90	0.00	29.969 
03:00	37.8	37.8	37.8	92	35.7	1	4	90	0.01	29.972 
03:05	37.8	37.8	37.8	92	35.7	1	5	112	0.01	29.972 
03:10	37.6	37.6	37.6	92	35.5	2	6	90	0.01	29.972 
03:15	37.5	37.5	37.5	92	35.4	3	7	112	0.00	29.957 
03:20	37.5	37.5	37.5	92	35.4	3	9	112	0.01	29.957 
03:25	37.3	37.3	37.3	92	35.2	2	7	112	0.00	29.957 
03:30	37.3	37.3	37.3	92	35.2	2	6	22	0.00	29.969 
03:35	37.3	37.3	37.3	93	35.5	2	8	90	0.01	29.969 
03:40	37.3	34.2	37.3	93	35.5	4	12	90	0.02	29.969 
03:45	37.2	34.1	37.2	93	35.4	4	10	112	0.01	29.936 
03:50	37.2	34.1	37.2	93	35.4	4	10	90	0.01	29.936 
03:55	37.0	33.9	37.0	93	35.2	4	11	112	0.01	29.936 
04:00	37.0	33.9	37.0	93	35.2	4	10	90	0.01	29.924 
04:05	36.9	36.9	36.9	93	35.1	3	7	112	0.00	29.924 
04:10	36.8	36.8	36.8	94	35.2	2	7	90	0.01	29.924 
04:15	36.8	36.8	36.8	94	35.2	2	9	22	0.01	29.926 
04:20	36.6	36.6	36.6	94	35.0	3	11	112	0.01	29.926 
04:25	36.5	36.5	36.5	94	34.9	2	4	112	0.00	29.926 
04:30	36.3	36.3	36.3	94	34.7	2	6	68	0.00	29.928 
04:35	36.3	36.3	36.3	94	34.7	3	13	90	0.01	29.928 
04:40	36.2	36.2	36.2	94	34.6	2	5	90	0.00	29.928 
04:45	36.2	36.2	36.2	94	34.6	2	8	68	0.00	29.938 
04:50	36.0	36.0	36.0	94	34.4	3	10	22	0.01	29.938 
04:55	35.9	35.9	35.9	94	34.3	2	7	90	0.00	29.938 
05:00	35.9	35.9	35.9	94	34.3	3	10	90	0.01	29.933 
05:05	35.9	32.6	35.9	94	34.3	4	11	90	0.00	29.933 
05:10	35.9	30.9	35.9	94	34.3	6	12	112	0.00	29.933 
05:15	35.9	32.6	35.9	94	34.3	4	11	90	0.00	29.939 
05:20	35.8	31.5	35.8	94	34.2	5	10	90	0.00	29.939 
05:25	35.8	30.8	35.8	94	34.2	6	12	112	0.01	29.939 
05:30	35.9	35.9	35.9	94	34.3	3	9	112	0.00	29.929 
05:35	35.9	35.9	35.9	94	34.3	2	7	112	0.00	29.929 
05:40	36.0	36.0	36.0	94	34.4	2	8	90	0.00	29.929 
05:45	36.0	36.0	36.0	94	34.4	2	9	22	0.00	29.934 
05:50	36.2	32.9	36.2	94	34.6	4	12	90	0.00	29.934 
05:55	36.2	32.9	36.2	94	34.6	4	10	90	0.00	29.934 
06:00	36.2	32.9	36.2	94	34.6	4	11	112	0.00	29.914 
06:05	36.2	32.9	36.2	94	34.6	4	13	90	0.00	29.914 
06:10	36.2	32.9	36.2	94	34.6	4	10	90	0.01	29.914 
06:15	36.2	32.9	36.2	94	34.6	4	12	90	0.00	29.927 
06:20	36.2	32.9	36.2	94	34.6	4	10	112	0.00	29.927 
06:25	36.2	36.2	36.2	94	34.6	2	5	22	0.00	29.927 
06:30	36.2	36.2	36.2	94	34.6	2	5	68	0.00	29.940 
06:35	36.2	36.2	36.2	94	34.6	1	5	90	0.00	29.940 
06:40	36.2	36.2	36.2	94	34.6	2	10	112	0.01	29.940 
06:45	36.0	36.0	36.0	94	34.4	2	5	45	0.01	29.946 
06:50	36.0	36.0	36.0	94	34.4	1	5	90	0.00	29.946 
06:55	36.0	36.0	36.0	94	34.4	1	5	22	0.00	29.946 
07:00	36.0	36.0	36.0	94	34.4	1	4	112	0.00	29.961 
07:05	35.9	35.9	35.9	94	34.3	2	4	68	0.00	29.961 
07:10	35.8	35.8	35.8	94	34.2	2	6	112	0.01	29.961 
07:15	35.8	35.8	35.8	94	34.2	2	6	112	0.00	29.952 
07:20	35.8	35.8	35.8	94	34.2	2	6	68	0.00	29.952 
07:25	35.8	35.8	35.8	94	34.2	2	9	112	0.00	29.952 
07:30	35.8	35.8	35.8	94	34.2	2	9	45	0.01	29.957 
07:35	35.9	35.9	35.9	94	34.3	3	11	90	0.00	29.957 
07:40	35.9	31.7	35.9	94	34.3	5	12	112	0.00	29.957 
07:45	35.9	31.7	35.9	94	34.3	5	12	112	0.01	29.941 
07:50	35.9	31.7	35.9	94	34.3	5	11	112	0.00	29.941 
07:55	35.9	30.9	35.9	94	34.3	6	16	112	0.00	29.941 
08:00	35.9	31.7	35.9	94	34.3	5	13	90	0.00	29.924 
08:05	35.9	30.2	35.9	94	34.3	7	14	112	0.00	29.924 
08:10	35.9	31.7	35.9	94	34.3	5	12	90	0.00	29.924 
08:15	36.0	31.0	36.0	94	34.4	6	12	112	0.00	29.916 
08:20	36.0	31.0	36.0	94	34.4	6	12	112	0.00	29.916 
08:25	36.2	30.6	36.2	94	34.6	7	13	90	0.00	29.916 
08:30	36.3	31.4	36.3	94	34.7	6	12	90	0.00	29.907 
08:35	36.5	32.4	36.5	94	34.9	5	14	90	0.00	29.907 
08:40	36.6	33.4	36.6	94	35.0	4	13	90	0.00	29.907 
08:45	36.8	32.7	36.8	94	35.2	5	12	135	0.00	29.932 
08:50	36.9	32.8	36.9	94	35.3	5	12	90	0.00	29.932 
08:55	36.9	32.1	36.9	94	35.3	6	16	90	0.00	29.932 
09:00	37.0	37.0	37.0	94	35.4	3	10	90	0.00	29.915 
09:05	37.0	32.9	37.0	93	35.2	5	13	112	0.00	29.915 
09:10	37.0	37.0	37.0	93	35.2	3	12	135	0.00	29.915 
09:15	37.0	37.0	37.0	93	35.2	3	8	112	0.00	29.916 
09:20	37.0	33.9	37.0	93	35.2	4	11	112	0.00	29.916 
09:25	37.0	37.0	37.0	93	35.2	3	11	112	0.00	29.916 
09:30	37.0	30.9	37.0	93	35.2	8	13	90	0.00	29.901 
09:35	37.2	32.4	37.2	93	35.4	6	14	90	0.00	29.901 
09:40	37.3	31.9	37.3	93	35.5	7	14	112	0.00	29.901 
09:45	37.5	32.8	37.5	93	35.7	6	12	90	0.00	29.900 
09:50	37.8	34.8	37.8	93	36.0	4	12	112	0.00	29.900 
09:55	37.8	33.1	37.8	93	36.0	6	13	112	0.00	29.900 
10:00	37.9	33.3	37.9	93	36.1	6	12	112	0.00	29.898 
10:05	37.9	33.3	37.9	92	35.8	6	15	112	0.00	29.898 
10:10	38.0	33.4	38.0	92	35.9	6	16	90	0.00	29.898 
10:15	38.2	34.4	38.2	92	36.1	5	12	112	0.00	29.901 
10:20	38.3	35.4	38.3	92	36.2	4	12	90	0.00	29.901 
10:25	38.5	34.7	38.5	91	36.1	5	12	90	0.00	29.901 
10:30	38.6	34.8	38.6	91	36.2	5	18	90	0.00	29.910 
10:35	38.8	35.1	38.8	91	36.4	5	14	112	0.00	29.910 
10:40	38.8	35.9	38.8	90	36.1	4	11	90	0.00	29.910 
10:45	39.1	39.1	39.1	90	36.4	2	11	90	0.00	29.917 
10:50	39.2	36.4	39.2	90	36.5	4	11	90	0.00	29.917 
10:55	39.2	36.4	39.2	90	36.5	4	10	90	0.00	29.917 
11:00	39.5	39.5	39.5	90	36.8	3	6	112	0.00	29.914 
11:05	39.5	36.7	39.5	90	36.8	4	11	112	0.00	29.914 
11:10	39.6	36.9	39.6	90	36.9	4	11	112	0.00	29.914 
11:15	39.8	36.2	39.8	90	37.1	5	13	112	0.00	29.896 
11:20	39.9	37.2	39.9	90	37.2	4	12	112	0.00	29.896 
11:25	39.9	35.6	39.9	89	36.9	6	17	112	0.00	29.896 
11:30	39.9	36.4	39.9	89	36.9	5	17	90	0.00	29.902 
11:35	40.1	37.4	40.1	89	37.1	4	15	90	0.00	29.902 
11:40	40.2	37.5	40.2	89	37.2	4	13	90	0.00	29.902 
11:45	40.2	36.7	40.2	89	37.2	5	11	112	0.00	29.898 
11:50	40.2	36.0	40.2	89	37.2	6	13	90	0.00	29.898 
11:55	40.2	36.7	40.2	89	37.2	5	11	112	0.00	29.898 
12:00	40.2	37.5	40.2	89	37.2	4	9	112	0.00	29.921 
12:05	40.3	40.3	40.3	90	37.6	3	10	112	0.00	29.921 
12:10	40.2	36.7	40.2	90	37.5	5	10	112	0.02	29.921 
12:15	40.2	37.5	40.2	90	37.5	4	9	112	0.03	29.929 
12:20	40.1	35.9	40.1	91	37.7	6	12	90	0.01	29.929 
12:25	40.1	36.6	40.1	92	38.0	5	9	112	0.02	29.929 
12:30	39.9	35.6	39.9	92	37.8	6	11	90	0.01	29.912 
12:35	40.1	40.1	40.1	92	38.0	3	10	90	0.00	29.912 
12:40	40.1	36.6	40.1	93	38.2	5	10	112	0.00	29.912 
12:45	40.1	36.6	40.1	93	38.2	5	13	90	0.01	29.898 
12:50	39.9	34.5	39.9	93	38.0	8	18	90	0.00	29.898 
12:55	39.9	35.6	39.9	93	38.0	6	16	90	0.00	29.898 
13:00	39.9	36.4	39.9	94	38.3	5	12	90	0.00	29.894 
13:05	39.9	36.4	39.9	94	38.3	5	12	112	0.00	29.894 
13:10	40.1	36.6	40.1	94	38.5	5	11	90	0.00	29.894 
13:15	40.1	35.9	40.1	94	38.5	6	13	90	0.00	29.851 
13:20	39.9	35.0	39.9	93	38.0	7	17	90	0.00	29.851 
13:25	39.9	36.4	39.9	93	38.0	5	14	90	0.00	29.851 
13:30	39.9	35.6	39.9	93	38.0	6	16	90	0.00	29.868 
13:35	40.1	35.9	40.1	93	38.2	6	14	90	0.00	29.868 
13:40	40.1	35.9	40.1	93	38.2	6	12	112	0.00	29.868 
13:45	40.1	36.6	40.1	93	38.2	5	12	90	0.00	29.867 
13:50	40.1	35.3	40.1	93	38.2	7	16	112	0.00	29.867 
13:55	39.9	35.6	39.9	92	37.8	6	16	112	0.00	29.867 
14:00	39.8	34.9	39.8	92	37.7	7	15	112	0.00	29.859 
14:05	39.8	34.9	39.8	92	37.7	7	18	90	0.00	29.859 
14:10	39.9	35.0	39.9	92	37.8	7	16	90	0.00	29.859 
14:15	40.1	34.7	40.1	92	38.0	8	14	90	0.00	29.812 
14:20	40.2	35.4	40.2	92	38.1	7	16	90	0.00	29.812 
14:25	40.3	34.5	40.3	92	38.2	9	16	112	0.00	29.812 
14:30	40.5	35.7	40.5	92	38.4	7	18	112	0.00	29.804 
14:35	40.6	36.5	40.6	92	38.5	6	15	112	0.00	29.804 
14:40	40.5	35.2	40.5	92	38.4	8	15	112	0.00	29.804 
14:45	40.5	37.1	40.5	92	38.4	5	12	112	0.00	29.815 
14:50	40.3	35.0	40.3	91	37.9	8	16	112	0.00	29.815 
14:55	40.2	34.8	40.2	92	38.1	8	15	90	0.00	29.815 
15:00	40.1	34.7	40.1	92	38.0	8	15	90	0.00	29.788 
15:05	40.1	40.1	40.1	92	38.0	2	8	90	0.01	29.788 
15:10	40.1	40.1	40.1	92	38.0	3	11	90	0.04	29.788 
15:15	40.1	37.4	40.1	92	38.0	4	11	112	0.13	29.826 
15:20	39.9	36.4	39.9	93	38.0	5	11	90	0.02	29.826 
15:25	39.9	39.9	39.9	93	38.0	3	10	90	0.00	29.826 
15:30	39.9	39.9	39.9	94	38.3	2	9	22	0.00	29.842 
15:35	39.9	39.9	39.9	94	38.3	2	5	45	0.00	29.842 
15:40	39.8	37.1	39.8	94	38.2	4	12	112	0.01	29.842 
15:45	39.8	37.1	39.8	94	38.2	4	10	112	0.00	29.837 
15:50	39.8	39.8	39.8	94	38.2	3	10	90	0.02	29.837 
15:55	39.6	36.0	39.6	94	38.0	5	11	90	0.01	29.837 
16:00	39.6	36.0	39.6	94	38.0	5	13	90	0.01	29.807 
16:05	39.6	36.0	39.6	95	38.3	5	11	90	0.01	29.807 
16:10	39.5	35.9	39.5	95	38.2	5	13	90	0.01	29.807 
16:15	39.5	36.7	39.5	95	38.2	4	15	90	0.00	29.800 
16:20	39.5	35.2	39.5	95	38.2	6	11	90	0.00	29.800 
16:25	39.5	35.2	39.5	95	38.2	6	13	112	0.00	29.800 
16:30	39.5	36.7	39.5	95	38.2	4	10	112	0.00	29.787 
16:35	39.5	35.9	39.5	95	38.2	5	11	90	0.01	29.787 
16:40	39.3	35.7	39.3	95	38.0	5	9	90	0.00	29.787 
16:45	39.5	39.5	39.5	95	38.2	3	6	90	0.00	29.773 
16:50	39.3	35.7	39.3	95	38.0	5	11	112	0.00	29.773 
16:55	39.3	34.9	39.3	95	38.0	6	14	112	0.00	29.773 
17:00	39.3	35.7	39.3	95	38.0	5	10	90	0.00	29.776 
17:05	39.3	34.9	39.3	95	38.0	6	14	90	0.01	29.776 
17:10	39.3	34.9	39.3	95	38.0	6	13	112	0.00	29.776 
17:15	39.3	34.9	39.3	95	38.0	6	13	90	0.00	29.773 
17:20	39.3	35.7	39.3	95	38.0	5	12	90	0.00	29.773 
17:25	39.3	35.7	39.3	95	38.0	5	10	90	0.00	29.773 
17:30	39.3	34.3	39.3	95	38.0	7	16	90	0.00	29.771 
17:35	39.3	35.7	39.3	95	38.0	5	16	90	0.00	29.771 
17:40	39.3	34.9	39.3	95	38.0	6	16	90	0.00	29.771 
17:45	39.2	34.2	39.2	95	37.9	7	14	90	0.00	29.772 
17:50	39.3	35.7	39.3	95	38.0	5	9	90	0.00	29.772 
17:55	39.3	34.3	39.3	95	38.0	7	14	90	0.00	29.772 
18:00	39.3	34.9	39.3	95	38.0	6	12	112	0.00	29.767 
18:05	39.3	35.7	39.3	95	38.0	5	14	90	0.00	29.767 
18:10	39.3	35.7	39.3	95	38.0	5	11	112	0.00	29.767 
18:15	39.3	34.9	39.3	95	38.0	6	12	90	0.00	29.762 
18:20	39.2	34.8	39.2	95	37.9	6	11	90	0.00	29.762 
18:25	39.2	34.8	39.2	95	37.9	6	11	90	0.00	29.762 
18:30	39.3	34.9	39.3	95	38.0	6	10	90	0.00	29.762 
18:35	39.3	35.7	39.3	95	38.0	5	12	90	0.00	29.762 
18:40	39.3	35.7	39.3	95	38.0	5	10	90	0.00	29.762 
18:45	39.3	36.5	39.3	95	38.0	4	11	90	0.00	29.764 
18:50	39.2	35.5	39.2	95	37.9	5	14	112	0.00	29.764 
18:55	39.2	36.4	39.2	95	37.9	4	9	90	0.00	29.764 
19:00	39.2	36.4	39.2	95	37.9	4	10	90	0.00	29.759 
19:05	39.2	34.8	39.2	95	37.9	6	16	112	0.00	29.759 
19:10	39.2	34.2	39.2	95	37.9	7	18	112	0.00	29.759 
19:15	39.2	35.5	39.2	95	37.9	5	11	90	0.00	29.744 
19:20	39.2	35.5	39.2	95	37.9	5	11	90	0.00	29.744 
19:25	39.3	35.7	39.3	95	38.0	5	10	90	0.00	29.744 
19:30	39.3	35.7	39.3	95	38.0	5	10	90	0.00	29.727 
19:35	39.3	35.7	39.3	95	38.0	5	14	90	0.00	29.727 
19:40	39.3	36.5	39.3	95	38.0	4	11	90	0.00	29.727 
19:45	39.3	34.9	39.3	95	38.0	6	11	90	0.00	29.707 
19:50	39.3	35.7	39.3	95	38.0	5	11	90	0.00	29.707 
19:55	39.3	34.9	39.3	95	38.0	6	13	112	0.00	29.707 
20:00	39.3	34.9	39.3	95	38.0	6	12	112	0.00	29.696 
20:05	39.3	35.7	39.3	95	38.0	5	11	90	0.00	29.696 
20:10	39.3	36.5	39.3	96	38.3	4	11	90	0.00	29.696 
20:15	39.3	35.7	39.3	95	38.0	5	11	90	0.00	29.697 
20:20	39.3	36.5	39.3	95	38.0	4	10	90	0.00	29.697 
20:25	39.3	34.9	39.3	96	38.3	6	13	90	0.00	29.697 
20:30	39.3	39.3	39.3	96	38.3	3	6	90	0.00	29.696 
20:35	39.3	36.5	39.3	96	38.3	4	8	90	0.00	29.696 
20:40	39.3	35.7	39.3	96	38.3	5	12	112	0.00	29.696 
20:45	39.3	36.5	39.3	96	38.3	4	12	90	0.00	29.685 
20:50	39.3	36.5	39.3	96	38.3	4	12	90	0.00	29.685 
20:55	39.3	36.5	39.3	96	38.3	4	11	90	0.00	29.685 
21:00	39.5	36.7	39.5	96	38.5	4	9	90	0.00	29.662 
21:05	39.3	35.7	39.3	96	38.3	5	12	90	0.00	29.662 
21:10	39.3	36.5	39.3	96	38.3	4	11	90	0.00	29.662 
21:15	39.3	39.3	39.3	96	38.3	3	9	112	0.00	29.657 
21:20	39.3	36.5	39.3	96	38.3	4	10	90	0.00	29.657 
21:25	39.5	36.7	39.5	96	38.5	4	10	90	0.00	29.657 
21:30	39.5	39.5	39.5	96	38.5	3	7	90	0.00	29.648 
21:35	39.5	36.7	39.5	96	38.5	4	8	90	0.00	29.648 
21:40	39.5	36.7	39.5	96	38.5	4	9	90	0.00	29.648 
21:45	39.6	36.9	39.6	96	38.6	4	9	90	0.00	29.624 
21:50	39.6	36.9	39.6	96	38.6	4	7	90	0.00	29.624 
21:55	39.6	39.6	39.6	96	38.6	3	10	112	0.00	29.624 
22:00	39.6	36.9	39.6	96	38.6	4	10	112	0.00	29.619 
22:05	39.6	39.6	39.6	96	38.6	3	10	90	0.00	29.619 
22:10	39.6	39.6	39.6	96	38.6	3	6	90	0.00	29.619 
22:15	39.8	36.2	39.8	96	38.8	5	13	90	0.00	29.615 
22:20	39.8	37.1	39.8	96	38.8	4	10	90	0.00	29.615 
22:25	39.8	37.1	39.8	96	38.8	4	9	90	0.00	29.615 
22:30	39.8	37.1	39.8	96	38.8	4	7	90	0.00	29.586 
22:35	39.9	39.9	39.9	96	38.9	3	9	90	0.00	29.586 
22:40	39.9	39.9	39.9	96	38.9	2	9	90	0.00	29.586 
22:45	39.9	37.2	39.9	96	38.9	4	10	90	0.00	29.584 
22:50	39.9	39.9	39.9	96	38.9	3	9	90	0.02	29.584 
22:55	39.9	37.2	39.9	96	38.9	4	9	90	0.00	29.584 
23:00	39.9	39.9	39.9	96	38.9	2	6	90	0.00	29.552 
23:05	40.1	37.4	40.1	96	39.1	4	7	90	0.02	29.552 
23:10	40.1	40.1	40.1	96	39.1	3	10	90	0.00	29.552 
23:15	40.1	40.1	40.1	96	39.1	3	6	112	0.00	29.534 
23:20	40.3	40.3	40.3	97	39.5	3	8	112	0.01	29.534 
23:25	40.5	40.5	40.5	97	39.7	2	6	112	0.08	29.534 
23:30	40.6	40.6	40.6	97	39.8	1	3	338	0.02	29.611 
23:35	40.8	40.8	40.8	97	40.0	1	4	22	0.01	29.611 
23:40	40.8	40.8	40.8	97	40.0	0	2	90	0.02	29.611 
23:45	40.9	40.9	40.9	97	40.1	0	2	90	0.03	29.615 
23:50	41.1	41.1	41.1	97	40.3	0	2	90	0.02	29.615 
23:55	41.2	41.2	41.2	97	40.4	0	2	90	0.02	29.615 

CoCoRaHS
IN-AL-39
A2 Web Hosting
Creative Commons License
GoDaddy
search engine by freefind advanced

loaded 2018-11-19 10:35:00 • last modified 2010-11-18 10:43:29
Privacy PolicyDisclaimer
• wx.awcolley.com is powered by PmWiki v.2002016 •
• all content (unless otherwise noted) © 2018 A W Colley